sensor_id;sensor_type;location;lat;lon;timestamp;P1;durP1;ratioP1;P2;durP2;ratioP2
66384;SDS011;53426;55.872;37.462;2023-02-08T00:01:21;10.82;;;7.85;;
66384;SDS011;53426;55.872;37.462;2023-02-08T00:03:49;14.93;;;9.55;;
66384;SDS011;53426;55.872;37.462;2023-02-08T00:06:15;12.68;;;8.88;;
66384;SDS011;53426;55.872;37.462;2023-02-08T00:08:43;12.80;;;7.35;;
66384;SDS011;53426;55.872;37.462;2023-02-08T00:11:09;13.98;;;8.88;;
66384;SDS011;53426;55.872;37.462;2023-02-08T00:13:35;11.73;;;8.40;;
66384;SDS011;53426;55.872;37.462;2023-02-08T00:16:02;12.07;;;8.52;;
66384;SDS011;53426;55.872;37.462;2023-02-08T00:18:28;10.70;;;7.78;;
66384;SDS011;53426;55.872;37.462;2023-02-08T00:20:54;9.98;;;6.13;;
66384;SDS011;53426;55.872;37.462;2023-02-08T00:23:22;12.43;;;8.05;;
66384;SDS011;53426;55.872;37.462;2023-02-08T00:25:48;14.35;;;7.38;;
66384;SDS011;53426;55.872;37.462;2023-02-08T00:28:15;11.25;;;8.02;;
66384;SDS011;53426;55.872;37.462;2023-02-08T00:30:42;12.43;;;8.50;;
66384;SDS011;53426;55.872;37.462;2023-02-08T00:33:09;12.85;;;8.63;;
66384;SDS011;53426;55.872;37.462;2023-02-08T00:35:35;10.20;;;7.32;;
66384;SDS011;53426;55.872;37.462;2023-02-08T00:38:01;9.48;;;7.05;;
66384;SDS011;53426;55.872;37.462;2023-02-08T00:40:27;10.50;;;6.97;;
66384;SDS011;53426;55.872;37.462;2023-02-08T00:42:53;10.55;;;6.72;;
66384;SDS011;53426;55.872;37.462;2023-02-08T00:45:19;12.30;;;7.97;;
66384;SDS011;53426;55.872;37.462;2023-02-08T00:47:45;11.60;;;7.65;;
66384;SDS011;53426;55.872;37.462;2023-02-08T00:50:10;11.60;;;7.65;;
66384;SDS011;53426;55.872;37.462;2023-02-08T00:52:37;12.60;;;7.95;;
66384;SDS011;53426;55.872;37.462;2023-02-08T00:55:03;12.38;;;8.63;;
66384;SDS011;53426;55.872;37.462;2023-02-08T00:57:31;11.82;;;8.02;;
66384;SDS011;53426;55.872;37.462;2023-02-08T00:59:58;11.73;;;8.10;;
66384;SDS011;53426;55.872;37.462;2023-02-08T01:02:24;10.75;;;7.85;;
66384;SDS011;53426;55.872;37.462;2023-02-08T01:04:50;13.35;;;7.88;;
66384;SDS011;53426;55.872;37.462;2023-02-08T01:07:16;11.93;;;7.75;;
66384;SDS011;53426;55.872;37.462;2023-02-08T01:09:42;11.50;;;8.70;;
66384;SDS011;53426;55.872;37.462;2023-02-08T01:12:08;11.80;;;7.53;;
66384;SDS011;53426;55.872;37.462;2023-02-08T01:14:36;9.48;;;7.40;;
66384;SDS011;53426;55.872;37.462;2023-02-08T01:17:05;10.80;;;7.40;;
66384;SDS011;53426;55.872;37.462;2023-02-08T01:19:32;10.23;;;7.35;;
66384;SDS011;53426;55.872;37.462;2023-02-08T01:22:01;8.95;;;7.13;;
66384;SDS011;53426;55.872;37.462;2023-02-08T01:24:27;14.20;;;8.07;;
66384;SDS011;53426;55.872;37.462;2023-02-08T01:26:53;13.20;;;8.70;;
66384;SDS011;53426;55.872;37.462;2023-02-08T01:29:19;9.80;;;6.25;;
66384;SDS011;53426;55.872;37.462;2023-02-08T01:31:45;11.70;;;8.20;;
66384;SDS011;53426;55.872;37.462;2023-02-08T01:34:11;8.05;;;5.43;;
66384;SDS011;53426;55.872;37.462;2023-02-08T01:36:37;10.55;;;7.95;;
66384;SDS011;53426;55.872;37.462;2023-02-08T01:39:06;13.65;;;7.70;;
66384;SDS011;53426;55.872;37.462;2023-02-08T01:41:35;12.80;;;8.60;;
66384;SDS011;53426;55.872;37.462;2023-02-08T01:46:45;10.60;;;7.82;;
66384;SDS011;53426;55.872;37.462;2023-02-08T01:52:10;11.93;;;7.60;;
66384;SDS011;53426;55.872;37.462;2023-02-08T01:54:39;10.85;;;7.30;;
66384;SDS011;53426;55.872;37.462;2023-02-08T01:57:11;12.18;;;8.77;;
66384;SDS011;53426;55.872;37.462;2023-02-08T01:59:42;12.63;;;8.13;;
66384;SDS011;53426;55.872;37.462;2023-02-08T02:02:12;13.35;;;8.40;;
66384;SDS011;53426;55.872;37.462;2023-02-08T02:04:41;9.25;;;6.93;;
66384;SDS011;53426;55.872;37.462;2023-02-08T02:07:07;11.30;;;7.75;;
66384;SDS011;53426;55.872;37.462;2023-02-08T02:09:41;12.88;;;8.07;;
66384;SDS011;53426;55.872;37.462;2023-02-08T02:12:11;9.48;;;7.05;;
66384;SDS011;53426;55.872;37.462;2023-02-08T02:14:38;8.40;;;6.18;;
66384;SDS011;53426;55.872;37.462;2023-02-08T02:17:05;11.65;;;6.32;;
66384;SDS011;53426;55.872;37.462;2023-02-08T02:27:47;9.02;;;5.47;;
66384;SDS011;53426;55.872;37.462;2023-02-08T02:35:58;12.13;;;6.32;;
66384;SDS011;53426;55.872;37.462;2023-02-08T02:41:06;8.70;;;6.65;;
66384;SDS011;53426;55.872;37.462;2023-02-08T02:44:00;8.80;;;5.70;;
66384;SDS011;53426;55.872;37.462;2023-02-08T02:46:42;7.85;;;6.07;;
66384;SDS011;53426;55.872;37.462;2023-02-08T02:51:51;7.32;;;5.63;;
66384;SDS011;53426;55.872;37.462;2023-02-08T02:56:55;10.80;;;7.28;;
66384;SDS011;53426;55.872;37.462;2023-02-08T02:59:26;8.77;;;6.85;;
66384;SDS011;53426;55.872;37.462;2023-02-08T03:01:56;8.80;;;6.65;;
66384;SDS011;53426;55.872;37.462;2023-02-08T03:07:04;12.20;;;7.55;;
66384;SDS011;53426;55.872;37.462;2023-02-08T03:14:44;9.50;;;6.93;;
66384;SDS011;53426;55.872;37.462;2023-02-08T03:20:08;10.02;;;6.22;;
66384;SDS011;53426;55.872;37.462;2023-02-08T03:22:42;8.63;;;6.63;;
66384;SDS011;53426;55.872;37.462;2023-02-08T03:25:16;8.98;;;6.05;;
66384;SDS011;53426;55.872;37.462;2023-02-08T03:27:51;9.30;;;7.18;;
66384;SDS011;53426;55.872;37.462;2023-02-08T03:36:28;10.15;;;6.18;;
66384;SDS011;53426;55.872;37.462;2023-02-08T03:39:10;14.45;;;6.50;;
66384;SDS011;53426;55.872;37.462;2023-02-08T03:41:41;7.82;;;6.80;;
66384;SDS011;53426;55.872;37.462;2023-02-08T03:44:15;8.48;;;6.85;;
66384;SDS011;53426;55.872;37.462;2023-02-08T03:46:50;9.02;;;6.40;;
66384;SDS011;53426;55.872;37.462;2023-02-08T03:49:21;8.88;;;7.03;;
66384;SDS011;53426;55.872;37.462;2023-02-08T03:51:50;9.30;;;6.20;;
66384;SDS011;53426;55.872;37.462;2023-02-08T03:54:18;9.40;;;6.78;;
66384;SDS011;53426;55.872;37.462;2023-02-08T03:59:38;7.82;;;5.93;;
66384;SDS011;53426;55.872;37.462;2023-02-08T04:02:07;17.17;;;6.70;;
66384;SDS011;53426;55.872;37.462;2023-02-08T04:04:38;11.13;;;6.45;;
66384;SDS011;53426;55.872;37.462;2023-02-08T04:07:07;8.35;;;6.30;;
66384;SDS011;53426;55.872;37.462;2023-02-08T04:09:35;7.20;;;5.75;;
66384;SDS011;53426;55.872;37.462;2023-02-08T04:12:01;8.27;;;6.45;;
66384;SDS011;53426;55.872;37.462;2023-02-08T04:14:27;6.93;;;5.28;;
66384;SDS011;53426;55.872;37.462;2023-02-08T04:16:53;9.30;;;6.35;;
66384;SDS011;53426;55.872;37.462;2023-02-08T04:19:19;8.75;;;6.40;;
66384;SDS011;53426;55.872;37.462;2023-02-08T04:21:45;8.27;;;6.55;;
66384;SDS011;53426;55.872;37.462;2023-02-08T04:24:11;7.97;;;6.18;;
66384;SDS011;53426;55.872;37.462;2023-02-08T04:26:37;10.50;;;7.32;;
66384;SDS011;53426;55.872;37.462;2023-02-08T04:29:02;10.18;;;6.30;;
66384;SDS011;53426;55.872;37.462;2023-02-08T04:31:29;10.75;;;7.45;;
66384;SDS011;53426;55.872;37.462;2023-02-08T04:33:55;10.43;;;6.60;;
66384;SDS011;53426;55.872;37.462;2023-02-08T04:36:21;9.75;;;6.55;;
66384;SDS011;53426;55.872;37.462;2023-02-08T04:38:47;10.52;;;6.70;;
66384;SDS011;53426;55.872;37.462;2023-02-08T04:41:12;3.70;;;3.38;;
66384;SDS011;53426;55.872;37.462;2023-02-08T04:43:38;11.35;;;6.68;;
66384;SDS011;53426;55.872;37.462;2023-02-08T04:46:04;8.40;;;6.38;;
66384;SDS011;53426;55.872;37.462;2023-02-08T04:48:30;9.27;;;6.70;;
66384;SDS011;53426;55.872;37.462;2023-02-08T04:50:57;8.43;;;6.55;;
66384;SDS011;53426;55.872;37.462;2023-02-08T04:53:24;12.20;;;6.63;;
66384;SDS011;53426;55.872;37.462;2023-02-08T04:55:50;14.02;;;7.25;;
66384;SDS011;53426;55.872;37.462;2023-02-08T04:58:16;8.35;;;6.22;;
66384;SDS011;53426;55.872;37.462;2023-02-08T05:00:42;11.15;;;7.47;;
66384;SDS011;53426;55.872;37.462;2023-02-08T05:03:08;12.48;;;6.57;;
66384;SDS011;53426;55.872;37.462;2023-02-08T05:05:34;11.65;;;7.63;;
66384;SDS011;53426;55.872;37.462;2023-02-08T05:08:00;10.93;;;6.82;;
66384;SDS011;53426;55.872;37.462;2023-02-08T05:10:26;10.10;;;6.47;;
66384;SDS011;53426;55.872;37.462;2023-02-08T05:12:52;10.07;;;6.68;;
66384;SDS011;53426;55.872;37.462;2023-02-08T05:15:18;15.00;;;7.80;;
66384;SDS011;53426;55.872;37.462;2023-02-08T05:17:44;12.82;;;7.53;;
66384;SDS011;53426;55.872;37.462;2023-02-08T05:20:10;11.80;;;7.28;;
66384;SDS011;53426;55.872;37.462;2023-02-08T05:22:37;11.40;;;7.15;;
66384;SDS011;53426;55.872;37.462;2023-02-08T05:25:03;10.57;;;7.72;;
66384;SDS011;53426;55.872;37.462;2023-02-08T05:27:29;12.07;;;7.55;;
66384;SDS011;53426;55.872;37.462;2023-02-08T05:29:55;9.77;;;6.82;;
66384;SDS011;53426;55.872;37.462;2023-02-08T05:32:20;9.32;;;7.28;;
66384;SDS011;53426;55.872;37.462;2023-02-08T05:34:47;13.05;;;7.93;;
66384;SDS011;53426;55.872;37.462;2023-02-08T05:37:13;10.48;;;7.35;;
66384;SDS011;53426;55.872;37.462;2023-02-08T05:39:39;13.55;;;7.88;;
66384;SDS011;53426;55.872;37.462;2023-02-08T05:42:05;12.98;;;7.88;;
66384;SDS011;53426;55.872;37.462;2023-02-08T05:44:31;12.18;;;7.50;;
66384;SDS011;53426;55.872;37.462;2023-02-08T05:46:57;14.25;;;7.93;;
66384;SDS011;53426;55.872;37.462;2023-02-08T05:49:23;11.82;;;8.15;;
66384;SDS011;53426;55.872;37.462;2023-02-08T05:51:49;9.23;;;6.75;;
66384;SDS011;53426;55.872;37.462;2023-02-08T05:54:15;11.88;;;7.40;;
66384;SDS011;53426;55.872;37.462;2023-02-08T05:56:42;11.25;;;7.45;;
66384;SDS011;53426;55.872;37.462;2023-02-08T05:59:09;13.15;;;8.13;;
66384;SDS011;53426;55.872;37.462;2023-02-08T06:01:35;13.68;;;7.93;;
66384;SDS011;53426;55.872;37.462;2023-02-08T06:04:01;15.02;;;8.73;;
66384;SDS011;53426;55.872;37.462;2023-02-08T06:06:27;13.95;;;8.68;;
66384;SDS011;53426;55.872;37.462;2023-02-08T06:08:53;13.05;;;7.85;;
66384;SDS011;53426;55.872;37.462;2023-02-08T06:11:19;9.30;;;7.40;;
66384;SDS011;53426;55.872;37.462;2023-02-08T06:13:47;13.50;;;8.52;;
66384;SDS011;53426;55.872;37.462;2023-02-08T06:16:13;13.88;;;8.45;;
66384;SDS011;53426;55.872;37.462;2023-02-08T06:18:40;12.20;;;8.23;;
66384;SDS011;53426;55.872;37.462;2023-02-08T06:21:06;13.27;;;8.75;;
66384;SDS011;53426;55.872;37.462;2023-02-08T06:23:31;13.93;;;8.23;;
66384;SDS011;53426;55.872;37.462;2023-02-08T06:25:57;10.65;;;8.18;;
66384;SDS011;53426;55.872;37.462;2023-02-08T06:28:23;13.52;;;8.50;;
66384;SDS011;53426;55.872;37.462;2023-02-08T06:30:49;12.88;;;7.80;;
66384;SDS011;53426;55.872;37.462;2023-02-08T06:33:16;11.75;;;7.80;;
66384;SDS011;53426;55.872;37.462;2023-02-08T06:35:45;15.68;;;8.50;;
66384;SDS011;53426;55.872;37.462;2023-02-08T06:38:12;12.68;;;8.57;;
66384;SDS011;53426;55.872;37.462;2023-02-08T06:40:38;13.80;;;8.43;;
66384;SDS011;53426;55.872;37.462;2023-02-08T06:43:04;13.27;;;8.52;;
66384;SDS011;53426;55.872;37.462;2023-02-08T06:45:30;17.05;;;9.82;;
66384;SDS011;53426;55.872;37.462;2023-02-08T06:47:56;11.68;;;7.28;;
66384;SDS011;53426;55.872;37.462;2023-02-08T06:50:22;12.13;;;8.57;;
66384;SDS011;53426;55.872;37.462;2023-02-08T06:52:50;13.75;;;9.00;;
66384;SDS011;53426;55.872;37.462;2023-02-08T06:55:15;16.73;;;8.90;;
66384;SDS011;53426;55.872;37.462;2023-02-08T06:57:43;12.13;;;7.68;;
66384;SDS011;53426;55.872;37.462;2023-02-08T07:00:09;13.65;;;8.57;;
66384;SDS011;53426;55.872;37.462;2023-02-08T07:02:36;16.17;;;9.30;;
66384;SDS011;53426;55.872;37.462;2023-02-08T07:05:02;11.77;;;8.00;;
66384;SDS011;53426;55.872;37.462;2023-02-08T07:07:28;14.38;;;9.25;;
66384;SDS011;53426;55.872;37.462;2023-02-08T07:09:58;17.67;;;9.00;;
66384;SDS011;53426;55.872;37.462;2023-02-08T07:12:26;12.23;;;7.15;;
66384;SDS011;53426;55.872;37.462;2023-02-08T07:14:54;13.23;;;8.65;;
66384;SDS011;53426;55.872;37.462;2023-02-08T07:17:19;14.98;;;7.80;;
66384;SDS011;53426;55.872;37.462;2023-02-08T07:19:46;14.60;;;7.93;;
66384;SDS011;53426;55.872;37.462;2023-02-08T07:22:16;11.57;;;8.15;;
66384;SDS011;53426;55.872;37.462;2023-02-08T07:24:43;14.80;;;9.15;;
66384;SDS011;53426;55.872;37.462;2023-02-08T07:27:13;12.73;;;8.82;;
66384;SDS011;53426;55.872;37.462;2023-02-08T07:29:42;13.30;;;9.20;;
66384;SDS011;53426;55.872;37.462;2023-02-08T07:32:09;15.10;;;9.20;;
66384;SDS011;53426;55.872;37.462;2023-02-08T07:34:36;11.95;;;9.00;;
66384;SDS011;53426;55.872;37.462;2023-02-08T07:37:08;18.50;;;8.70;;
66384;SDS011;53426;55.872;37.462;2023-02-08T07:39:35;13.25;;;7.78;;
66384;SDS011;53426;55.872;37.462;2023-02-08T07:42:01;10.65;;;7.70;;
66384;SDS011;53426;55.872;37.462;2023-02-08T07:44:35;13.57;;;8.90;;
66384;SDS011;53426;55.872;37.462;2023-02-08T07:47:02;12.07;;;7.30;;
66384;SDS011;53426;55.872;37.462;2023-02-08T07:49:31;15.57;;;8.57;;
66384;SDS011;53426;55.872;37.462;2023-02-08T07:51:58;13.88;;;9.15;;
66384;SDS011;53426;55.872;37.462;2023-02-08T07:54:24;13.85;;;8.55;;
66384;SDS011;53426;55.872;37.462;2023-02-08T07:56:50;14.65;;;7.75;;
66384;SDS011;53426;55.872;37.462;2023-02-08T07:59:15;12.18;;;9.07;;
66384;SDS011;53426;55.872;37.462;2023-02-08T08:01:42;15.13;;;9.85;;
66384;SDS011;53426;55.872;37.462;2023-02-08T08:04:07;11.40;;;7.63;;
66384;SDS011;53426;55.872;37.462;2023-02-08T08:06:33;13.27;;;8.95;;
66384;SDS011;53426;55.872;37.462;2023-02-08T08:08:59;12.90;;;7.88;;
66384;SDS011;53426;55.872;37.462;2023-02-08T08:11:25;13.02;;;8.68;;
66384;SDS011;53426;55.872;37.462;2023-02-08T08:13:51;12.85;;;8.65;;
66384;SDS011;53426;55.872;37.462;2023-02-08T08:16:18;14.48;;;9.07;;
66384;SDS011;53426;55.872;37.462;2023-02-08T08:18:51;12.07;;;7.22;;
66384;SDS011;53426;55.872;37.462;2023-02-08T08:21:17;10.45;;;6.05;;
66384;SDS011;53426;55.872;37.462;2023-02-08T08:23:42;14.90;;;8.48;;
66384;SDS011;53426;55.872;37.462;2023-02-08T08:26:10;12.45;;;8.07;;
66384;SDS011;53426;55.872;37.462;2023-02-08T08:31:11;12.48;;;7.70;;
66384;SDS011;53426;55.872;37.462;2023-02-08T08:33:38;12.45;;;7.53;;
66384;SDS011;53426;55.872;37.462;2023-02-08T08:36:05;12.77;;;8.13;;
66384;SDS011;53426;55.872;37.462;2023-02-08T08:41:33;13.43;;;8.10;;
66384;SDS011;53426;55.872;37.462;2023-02-08T08:44:04;14.75;;;7.97;;
66384;SDS011;53426;55.872;37.462;2023-02-08T08:46:34;13.23;;;8.20;;
66384;SDS011;53426;55.872;37.462;2023-02-08T08:48:59;10.75;;;7.95;;
66384;SDS011;53426;55.872;37.462;2023-02-08T08:51:25;19.77;;;8.05;;
66384;SDS011;53426;55.872;37.462;2023-02-08T08:53:52;16.13;;;8.10;;
66384;SDS011;53426;55.872;37.462;2023-02-08T08:56:18;11.55;;;7.75;;
66384;SDS011;53426;55.872;37.462;2023-02-08T08:58:44;13.90;;;8.23;;
66384;SDS011;53426;55.872;37.462;2023-02-08T09:01:10;11.57;;;7.30;;
66384;SDS011;53426;55.872;37.462;2023-02-08T09:03:38;11.48;;;7.28;;
66384;SDS011;53426;55.872;37.462;2023-02-08T09:06:04;12.05;;;8.07;;
66384;SDS011;53426;55.872;37.462;2023-02-08T09:08:30;13.35;;;8.15;;
66384;SDS011;53426;55.872;37.462;2023-02-08T09:11:02;15.52;;;8.50;;
66384;SDS011;53426;55.872;37.462;2023-02-08T09:13:32;10.02;;;7.28;;
66384;SDS011;53426;55.872;37.462;2023-02-08T09:15:58;9.60;;;7.07;;
66384;SDS011;53426;55.872;37.462;2023-02-08T09:18:32;13.07;;;8.10;;
66384;SDS011;53426;55.872;37.462;2023-02-08T09:20:58;12.95;;;8.20;;
66384;SDS011;53426;55.872;37.462;2023-02-08T09:23:24;14.07;;;7.82;;
66384;SDS011;53426;55.872;37.462;2023-02-08T09:25:50;11.35;;;7.97;;
66384;SDS011;53426;55.872;37.462;2023-02-08T09:28:15;10.38;;;7.18;;
66384;SDS011;53426;55.872;37.462;2023-02-08T09:30:41;12.52;;;7.93;;
66384;SDS011;53426;55.872;37.462;2023-02-08T09:33:08;9.85;;;6.75;;
66384;SDS011;53426;55.872;37.462;2023-02-08T09:35:34;11.00;;;6.97;;
66384;SDS011;53426;55.872;37.462;2023-02-08T09:38:00;12.38;;;8.45;;
66384;SDS011;53426;55.872;37.462;2023-02-08T09:40:32;10.30;;;6.97;;
66384;SDS011;53426;55.872;37.462;2023-02-08T09:43:17;12.55;;;7.35;;
66384;SDS011;53426;55.872;37.462;2023-02-08T09:45:56;15.45;;;8.23;;
66384;SDS011;53426;55.872;37.462;2023-02-08T09:48:33;9.80;;;6.68;;
66384;SDS011;53426;55.872;37.462;2023-02-08T09:51:34;10.90;;;7.10;;
66384;SDS011;53426;55.872;37.462;2023-02-08T09:54:07;9.18;;;7.00;;
66384;SDS011;53426;55.872;37.462;2023-02-08T09:56:51;15.80;;;6.82;;
66384;SDS011;53426;55.872;37.462;2023-02-08T10:02:18;12.35;;;6.95;;
66384;SDS011;53426;55.872;37.462;2023-02-08T10:05:03;9.75;;;6.63;;
66384;SDS011;53426;55.872;37.462;2023-02-08T10:07:40;9.63;;;7.13;;
66384;SDS011;53426;55.872;37.462;2023-02-08T10:10:11;9.65;;;7.22;;
66384;SDS011;53426;55.872;37.462;2023-02-08T10:15:43;8.98;;;6.85;;
66384;SDS011;53426;55.872;37.462;2023-02-08T10:18:20;10.52;;;6.72;;
66384;SDS011;53426;55.872;37.462;2023-02-08T10:21:12;12.40;;;7.32;;
66384;SDS011;53426;55.872;37.462;2023-02-08T10:27:14;11.45;;;7.03;;
66384;SDS011;53426;55.872;37.462;2023-02-08T10:34:59;11.60;;;7.38;;
66384;SDS011;53426;55.872;37.462;2023-02-08T10:37:33;9.35;;;6.85;;
66384;SDS011;53426;55.872;37.462;2023-02-08T10:40:13;10.60;;;7.45;;
66384;SDS011;53426;55.872;37.462;2023-02-08T10:45:22;10.82;;;6.93;;
66384;SDS011;53426;55.872;37.462;2023-02-08T10:50:36;8.65;;;6.95;;
66384;SDS011;53426;55.872;37.462;2023-02-08T10:53:04;19.33;;;7.90;;
66384;SDS011;53426;55.872;37.462;2023-02-08T10:55:36;8.02;;;6.22;;
66384;SDS011;53426;55.872;37.462;2023-02-08T10:58:05;11.25;;;7.25;;
66384;SDS011;53426;55.872;37.462;2023-02-08T11:03:28;5.53;;;4.95;;
66384;SDS011;53426;55.872;37.462;2023-02-08T11:06:01;6.75;;;5.63;;
66384;SDS011;53426;55.872;37.462;2023-02-08T11:08:27;8.63;;;6.00;;
66384;SDS011;53426;55.872;37.462;2023-02-08T11:13:35;7.28;;;6.03;;
66384;SDS011;53426;55.872;37.462;2023-02-08T11:16:22;6.30;;;5.70;;
66384;SDS011;53426;55.872;37.462;2023-02-08T11:18:50;5.97;;;5.38;;
66384;SDS011;53426;55.872;37.462;2023-02-08T11:21:33;8.38;;;5.68;;
66384;SDS011;53426;55.872;37.462;2023-02-08T11:26:39;10.02;;;6.03;;
66384;SDS011;53426;55.872;37.462;2023-02-08T11:29:13;7.43;;;5.53;;
66384;SDS011;53426;55.872;37.462;2023-02-08T11:31:58;10.35;;;6.00;;
66384;SDS011;53426;55.872;37.462;2023-02-08T11:34:31;10.18;;;6.00;;
66384;SDS011;53426;55.872;37.462;2023-02-08T11:37:05;9.82;;;6.05;;
66384;SDS011;53426;55.872;37.462;2023-02-08T11:39:51;7.28;;;5.53;;
66384;SDS011;53426;55.872;37.462;2023-02-08T11:42:36;6.78;;;5.45;;
66384;SDS011;53426;55.872;37.462;2023-02-08T11:45:24;6.88;;;5.10;;
66384;SDS011;53426;55.872;37.462;2023-02-08T11:47:54;11.40;;;5.65;;
66384;SDS011;53426;55.872;37.462;2023-02-08T11:50:34;8.27;;;6.05;;
66384;SDS011;53426;55.872;37.462;2023-02-08T11:53:06;7.13;;;5.93;;
66384;SDS011;53426;55.872;37.462;2023-02-08T11:55:45;8.70;;;5.72;;
66384;SDS011;53426;55.872;37.462;2023-02-08T11:58:30;6.20;;;5.30;;
66384;SDS011;53426;55.872;37.462;2023-02-08T12:01:05;9.70;;;6.45;;
66384;SDS011;53426;55.872;37.462;2023-02-08T12:03:42;14.05;;;6.75;;
66384;SDS011;53426;55.872;37.462;2023-02-08T12:26:04;7.32;;;5.90;;
66384;SDS011;53426;55.872;37.462;2023-02-08T12:28:55;8.15;;;5.55;;
66384;SDS011;53426;55.872;37.462;2023-02-08T12:34:32;8.65;;;5.93;;
66384;SDS011;53426;55.872;37.462;2023-02-08T12:45:42;36.83;;;5.90;;
66384;SDS011;53426;55.872;37.462;2023-02-08T12:56:17;9.18;;;5.93;;
66384;SDS011;53426;55.872;37.462;2023-02-08T12:58:49;10.95;;;6.22;;
66384;SDS011;53426;55.872;37.462;2023-02-08T13:01:19;9.32;;;6.03;;
66384;SDS011;53426;55.872;37.462;2023-02-08T13:03:52;8.10;;;6.07;;
66384;SDS011;53426;55.872;37.462;2023-02-08T13:06:22;7.30;;;6.13;;
66384;SDS011;53426;55.872;37.462;2023-02-08T13:20:15;8.43;;;6.03;;
66384;SDS011;53426;55.872;37.462;2023-02-08T13:22:51;7.10;;;5.53;;
66384;SDS011;53426;55.872;37.462;2023-02-08T13:25:29;8.02;;;6.20;;
66384;SDS011;53426;55.872;37.462;2023-02-08T13:27:59;9.18;;;5.43;;
66384;SDS011;53426;55.872;37.462;2023-02-08T13:30:29;7.75;;;6.55;;
66384;SDS011;53426;55.872;37.462;2023-02-08T13:33:00;9.40;;;5.75;;
66384;SDS011;53426;55.872;37.462;2023-02-08T13:35:52;6.78;;;5.85;;
66384;SDS011;53426;55.872;37.462;2023-02-08T13:38:31;7.60;;;5.85;;
66384;SDS011;53426;55.872;37.462;2023-02-08T13:41:04;7.35;;;5.45;;
66384;SDS011;53426;55.872;37.462;2023-02-08T13:43:55;7.90;;;5.65;;
66384;SDS011;53426;55.872;37.462;2023-02-08T13:46:22;7.85;;;5.80;;
66384;SDS011;53426;55.872;37.462;2023-02-08T13:48:51;9.32;;;5.70;;
66384;SDS011;53426;55.872;37.462;2023-02-08T14:04:40;8.80;;;6.22;;
66384;SDS011;53426;55.872;37.462;2023-02-08T14:15:38;6.00;;;5.40;;
66384;SDS011;53426;55.872;37.462;2023-02-08T14:18:15;9.20;;;5.93;;
66384;SDS011;53426;55.872;37.462;2023-02-08T14:20:54;6.47;;;5.05;;
66384;SDS011;53426;55.872;37.462;2023-02-08T14:23:32;8.07;;;5.57;;
66384;SDS011;53426;55.872;37.462;2023-02-08T14:26:03;8.20;;;5.28;;
66384;SDS011;53426;55.872;37.462;2023-02-08T14:31:18;7.05;;;5.38;;
66384;SDS011;53426;55.872;37.462;2023-02-08T14:33:53;14.20;;;6.05;;
66384;SDS011;53426;55.872;37.462;2023-02-08T14:41:57;7.32;;;5.13;;
66384;SDS011;53426;55.872;37.462;2023-02-08T14:47:13;7.03;;;5.28;;
66384;SDS011;53426;55.872;37.462;2023-02-08T14:50:07;7.68;;;5.18;;
66384;SDS011;53426;55.872;37.462;2023-02-08T14:52:43;7.03;;;5.28;;
66384;SDS011;53426;55.872;37.462;2023-02-08T14:55:36;6.15;;;5.10;;
66384;SDS011;53426;55.872;37.462;2023-02-08T14:58:11;5.15;;;4.28;;
66384;SDS011;53426;55.872;37.462;2023-02-08T15:00:46;5.75;;;4.45;;
66384;SDS011;53426;55.872;37.462;2023-02-08T15:03:16;10.48;;;5.40;;
66384;SDS011;53426;55.872;37.462;2023-02-08T15:08:40;7.05;;;5.85;;
66384;SDS011;53426;55.872;37.462;2023-02-08T15:11:16;6.57;;;5.28;;
66384;SDS011;53426;55.872;37.462;2023-02-08T15:13:48;8.07;;;5.53;;
66384;SDS011;53426;55.872;37.462;2023-02-08T15:16:15;9.32;;;5.32;;
66384;SDS011;53426;55.872;37.462;2023-02-08T15:18:44;8.32;;;5.32;;
66384;SDS011;53426;55.872;37.462;2023-02-08T15:21:16;6.07;;;4.63;;
66384;SDS011;53426;55.872;37.462;2023-02-08T15:24:00;9.30;;;5.43;;
66384;SDS011;53426;55.872;37.462;2023-02-08T15:26:28;7.60;;;5.68;;
66384;SDS011;53426;55.872;37.462;2023-02-08T15:28:54;7.80;;;5.38;;
66384;SDS011;53426;55.872;37.462;2023-02-08T15:31:21;7.25;;;5.50;;
66384;SDS011;53426;55.872;37.462;2023-02-08T15:33:51;7.78;;;5.00;;
66384;SDS011;53426;55.872;37.462;2023-02-08T15:36:26;8.63;;;5.80;;
66384;SDS011;53426;55.872;37.462;2023-02-08T15:38:55;6.93;;;4.63;;
66384;SDS011;53426;55.872;37.462;2023-02-08T15:41:25;7.65;;;5.60;;
66384;SDS011;53426;55.872;37.462;2023-02-08T15:44:38;10.13;;;4.88;;
66384;SDS011;53426;55.872;37.462;2023-02-08T15:46:50;6.60;;;5.38;;
66384;SDS011;53426;55.872;37.462;2023-02-08T15:49:20;6.30;;;5.13;;
66384;SDS011;53426;55.872;37.462;2023-02-08T15:51:52;9.70;;;5.53;;
66384;SDS011;53426;55.872;37.462;2023-02-08T15:54:22;7.53;;;5.30;;
66384;SDS011;53426;55.872;37.462;2023-02-08T15:56:53;5.38;;;4.72;;
66384;SDS011;53426;55.872;37.462;2023-02-08T15:59:23;5.72;;;4.88;;
66384;SDS011;53426;55.872;37.462;2023-02-08T16:01:57;6.95;;;5.10;;
66384;SDS011;53426;55.872;37.462;2023-02-08T16:04:40;9.48;;;5.35;;
66384;SDS011;53426;55.872;37.462;2023-02-08T16:07:12;6.50;;;5.43;;
66384;SDS011;53426;55.872;37.462;2023-02-08T16:09:47;7.95;;;5.05;;
66384;SDS011;53426;55.872;37.462;2023-02-08T16:12:18;6.32;;;5.10;;
66384;SDS011;53426;55.872;37.462;2023-02-08T16:14:47;6.10;;;4.97;;
66384;SDS011;53426;55.872;37.462;2023-02-08T16:20:25;7.53;;;5.00;;
66384;SDS011;53426;55.872;37.462;2023-02-08T16:25:41;5.43;;;4.72;;
66384;SDS011;53426;55.872;37.462;2023-02-08T16:31:04;6.63;;;5.40;;
66384;SDS011;53426;55.872;37.462;2023-02-08T16:33:30;7.82;;;5.93;;
66384;SDS011;53426;55.872;37.462;2023-02-08T16:35:57;6.80;;;5.70;;
66384;SDS011;53426;55.872;37.462;2023-02-08T16:38:31;17.42;;;5.80;;
66384;SDS011;53426;55.872;37.462;2023-02-08T16:40:59;8.35;;;5.50;;
66384;SDS011;53426;55.872;37.462;2023-02-08T16:43:36;9.18;;;5.00;;
66384;SDS011;53426;55.872;37.462;2023-02-08T16:48:41;6.40;;;4.93;;
66384;SDS011;53426;55.872;37.462;2023-02-08T16:51:26;7.35;;;5.50;;
66384;SDS011;53426;55.872;37.462;2023-02-08T16:53:55;10.30;;;5.80;;
66384;SDS011;53426;55.872;37.462;2023-02-08T16:56:26;6.53;;;5.20;;
66384;SDS011;53426;55.872;37.462;2023-02-08T16:58:52;6.68;;;5.22;;
66384;SDS011;53426;55.872;37.462;2023-02-08T17:01:18;7.95;;;5.97;;
66384;SDS011;53426;55.872;37.462;2023-02-08T17:03:46;7.43;;;6.00;;
66384;SDS011;53426;55.872;37.462;2023-02-08T17:06:48;8.30;;;5.28;;
66384;SDS011;53426;55.872;37.462;2023-02-08T17:09:12;7.70;;;5.30;;
66384;SDS011;53426;55.872;37.462;2023-02-08T17:11:39;8.55;;;6.15;;
66384;SDS011;53426;55.872;37.462;2023-02-08T17:14:05;5.57;;;4.03;;
66384;SDS011;53426;55.872;37.462;2023-02-08T17:16:32;6.70;;;5.90;;
66384;SDS011;53426;55.872;37.462;2023-02-08T17:18:59;7.18;;;5.28;;
66384;SDS011;53426;55.872;37.462;2023-02-08T17:21:26;8.57;;;5.80;;
66384;SDS011;53426;55.872;37.462;2023-02-08T17:23:56;9.85;;;5.90;;
66384;SDS011;53426;55.872;37.462;2023-02-08T17:26:31;9.27;;;6.55;;
66384;SDS011;53426;55.872;37.462;2023-02-08T17:29:05;9.60;;;5.75;;
66384;SDS011;53426;55.872;37.462;2023-02-08T17:31:32;9.45;;;5.00;;
66384;SDS011;53426;55.872;37.462;2023-02-08T17:33:58;6.72;;;5.40;;
66384;SDS011;53426;55.872;37.462;2023-02-08T17:36:29;7.53;;;5.90;;
66384;SDS011;53426;55.872;37.462;2023-02-08T17:38:59;8.30;;;5.78;;
66384;SDS011;53426;55.872;37.462;2023-02-08T17:41:26;8.32;;;6.35;;
66384;SDS011;53426;55.872;37.462;2023-02-08T17:43:54;8.18;;;6.03;;